sensor_id;sensor_type;location;lat;lon;timestamp;P1;durP1;ratioP1;P2;durP2;ratioP2
31298;SDS011;17927;52.350;13.402;2022-09-14T00:00:55;2.95;;;2.65;;
31298;SDS011;17927;52.350;13.402;2022-09-14T00:03:20;3.13;;;2.30;;
31298;SDS011;17927;52.350;13.402;2022-09-14T00:05:46;4.85;;;2.42;;
31298;SDS011;17927;52.350;13.402;2022-09-14T00:08:12;2.75;;;2.17;;
31298;SDS011;17927;52.350;13.402;2022-09-14T00:10:38;2.45;;;2.25;;
31298;SDS011;17927;52.350;13.402;2022-09-14T00:13:05;5.22;;;2.47;;
31298;SDS011;17927;52.350;13.402;2022-09-14T00:15:33;6.18;;;2.35;;
31298;SDS011;17927;52.350;13.402;2022-09-14T00:17:59;3.92;;;2.22;;
31298;SDS011;17927;52.350;13.402;2022-09-14T00:20:25;2.85;;;1.67;;
31298;SDS011;17927;52.350;13.402;2022-09-14T00:22:50;2.28;;;2.03;;
31298;SDS011;17927;52.350;13.402;2022-09-14T00:25:15;2.20;;;2.03;;
31298;SDS011;17927;52.350;13.402;2022-09-14T00:27:42;5.18;;;1.90;;
31298;SDS011;17927;52.350;13.402;2022-09-14T00:30:07;2.58;;;2.10;;
31298;SDS011;17927;52.350;13.402;2022-09-14T00:32:33;2.15;;;1.35;;
31298;SDS011;17927;52.350;13.402;2022-09-14T00:34:58;7.15;;;2.35;;
31298;SDS011;17927;52.350;13.402;2022-09-14T00:37:23;4.30;;;1.65;;
31298;SDS011;17927;52.350;13.402;2022-09-14T00:39:48;5.70;;;1.55;;
31298;SDS011;17927;52.350;13.402;2022-09-14T00:42:15;9.20;;;2.10;;
31298;SDS011;17927;52.350;13.402;2022-09-14T00:47:11;4.25;;;1.90;;
31298;SDS011;17927;52.350;13.402;2022-09-14T00:49:41;4.75;;;1.52;;
31298;SDS011;17927;52.350;13.402;2022-09-14T00:52:08;4.30;;;1.80;;
31298;SDS011;17927;52.350;13.402;2022-09-14T00:54:41;4.97;;;2.15;;
31298;SDS011;17927;52.350;13.402;2022-09-14T00:57:09;2.05;;;1.95;;
31298;SDS011;17927;52.350;13.402;2022-09-14T00:59:36;5.47;;;2.15;;
31298;SDS011;17927;52.350;13.402;2022-09-14T01:02:03;2.40;;;2.20;;
31298;SDS011;17927;52.350;13.402;2022-09-14T01:04:31;2.60;;;2.15;;
31298;SDS011;17927;52.350;13.402;2022-09-14T01:09:43;4.28;;;2.35;;
31298;SDS011;17927;52.350;13.402;2022-09-14T01:12:35;4.50;;;2.03;;
31298;SDS011;17927;52.350;13.402;2022-09-14T01:15:24;3.53;;;2.20;;
31298;SDS011;17927;52.350;13.402;2022-09-14T01:20:59;4.40;;;2.00;;
31298;SDS011;17927;52.350;13.402;2022-09-14T01:23:33;3.25;;;2.58;;
31298;SDS011;17927;52.350;13.402;2022-09-14T01:29:08;2.78;;;1.95;;
31298;SDS011;17927;52.350;13.402;2022-09-14T01:31:53;3.38;;;2.72;;
31298;SDS011;17927;52.350;13.402;2022-09-14T01:34:34;2.55;;;2.35;;
31298;SDS011;17927;52.350;13.402;2022-09-14T01:37:08;4.35;;;2.80;;
31298;SDS011;17927;52.350;13.402;2022-09-14T01:39:39;5.35;;;2.50;;
31298;SDS011;17927;52.350;13.402;2022-09-14T01:42:07;8.30;;;2.85;;
31298;SDS011;17927;52.350;13.402;2022-09-14T01:44:36;4.13;;;3.00;;
31298;SDS011;17927;52.350;13.402;2022-09-14T01:47:09;3.47;;;2.75;;
31298;SDS011;17927;52.350;13.402;2022-09-14T01:49:45;5.25;;;2.83;;
31298;SDS011;17927;52.350;13.402;2022-09-14T01:52:19;2.88;;;2.47;;
31298;SDS011;17927;52.350;13.402;2022-09-14T01:54:50;3.20;;;2.92;;
31298;SDS011;17927;52.350;13.402;2022-09-14T01:57:23;2.80;;;2.55;;
31298;SDS011;17927;52.350;13.402;2022-09-14T01:59:53;4.28;;;2.75;;
31298;SDS011;17927;52.350;13.402;2022-09-14T02:02:24;3.05;;;2.75;;
31298;SDS011;17927;52.350;13.402;2022-09-14T02:05:00;4.22;;;3.00;;
31298;SDS011;17927;52.350;13.402;2022-09-14T02:07:29;4.45;;;3.08;;
31298;SDS011;17927;52.350;13.402;2022-09-14T02:09:55;3.60;;;2.85;;
31298;SDS011;17927;52.350;13.402;2022-09-14T02:12:21;8.85;;;3.25;;
31298;SDS011;17927;52.350;13.402;2022-09-14T02:14:47;3.67;;;3.13;;
31298;SDS011;17927;52.350;13.402;2022-09-14T02:17:15;5.05;;;3.10;;
31298;SDS011;17927;52.350;13.402;2022-09-14T02:19:42;3.30;;;3.00;;
31298;SDS011;17927;52.350;13.402;2022-09-14T02:22:13;5.28;;;3.20;;
31298;SDS011;17927;52.350;13.402;2022-09-14T02:24:38;5.00;;;2.60;;
31298;SDS011;17927;52.350;13.402;2022-09-14T02:27:05;4.57;;;2.67;;
31298;SDS011;17927;52.350;13.402;2022-09-14T02:29:31;4.82;;;4.22;;
31298;SDS011;17927;52.350;13.402;2022-09-14T02:32:06;4.25;;;3.83;;
31298;SDS011;17927;52.350;13.402;2022-09-14T02:37:55;4.05;;;2.90;;
31298;SDS011;17927;52.350;13.402;2022-09-14T02:46:30;5.28;;;3.00;;
31298;SDS011;17927;52.350;13.402;2022-09-14T02:49:05;5.28;;;3.50;;
31298;SDS011;17927;52.350;13.402;2022-09-14T02:51:40;6.57;;;3.30;;
31298;SDS011;17927;52.350;13.402;2022-09-14T02:54:14;5.22;;;3.20;;
31298;SDS011;17927;52.350;13.402;2022-09-14T02:56:44;8.80;;;3.58;;
31298;SDS011;17927;52.350;13.402;2022-09-14T02:59:10;5.28;;;3.13;;
31298;SDS011;17927;52.350;13.402;2022-09-14T03:01:36;6.90;;;3.45;;
31298;SDS011;17927;52.350;13.402;2022-09-14T03:04:01;4.90;;;3.00;;
31298;SDS011;17927;52.350;13.402;2022-09-14T03:06:27;6.07;;;3.42;;
31298;SDS011;17927;52.350;13.402;2022-09-14T03:08:52;3.20;;;2.88;;
31298;SDS011;17927;52.350;13.402;2022-09-14T03:11:17;7.93;;;3.13;;
31298;SDS011;17927;52.350;13.402;2022-09-14T03:13:43;6.88;;;2.97;;
31298;SDS011;17927;52.350;13.402;2022-09-14T03:16:10;4.93;;;3.05;;
31298;SDS011;17927;52.350;13.402;2022-09-14T03:18:38;5.78;;;3.38;;
31298;SDS011;17927;52.350;13.402;2022-09-14T03:21:06;9.60;;;3.35;;
31298;SDS011;17927;52.350;13.402;2022-09-14T03:23:46;11.18;;;3.50;;
31298;SDS011;17927;52.350;13.402;2022-09-14T03:26:15;6.30;;;3.33;;
31298;SDS011;17927;52.350;13.402;2022-09-14T03:28:42;5.90;;;2.92;;
31298;SDS011;17927;52.350;13.402;2022-09-14T03:31:09;14.55;;;8.95;;
31298;SDS011;17927;52.350;13.402;2022-09-14T03:33:36;7.78;;;7.05;;
31298;SDS011;17927;52.350;13.402;2022-09-14T03:36:14;8.57;;;7.68;;
31298;SDS011;17927;52.350;13.402;2022-09-14T03:38:45;6.63;;;5.60;;
31298;SDS011;17927;52.350;13.402;2022-09-14T03:41:12;4.40;;;4.10;;
31298;SDS011;17927;52.350;13.402;2022-09-14T03:43:37;6.45;;;3.72;;
31298;SDS011;17927;52.350;13.402;2022-09-14T03:46:07;4.40;;;4.10;;
31298;SDS011;17927;52.350;13.402;2022-09-14T03:48:33;3.35;;;3.05;;
31298;SDS011;17927;52.350;13.402;2022-09-14T03:50:59;3.42;;;3.13;;
31298;SDS011;17927;52.350;13.402;2022-09-14T03:53:25;3.38;;;3.10;;
31298;SDS011;17927;52.350;13.402;2022-09-14T03:55:51;3.28;;;2.95;;
31298;SDS011;17927;52.350;13.402;2022-09-14T03:58:17;3.47;;;2.70;;
31298;SDS011;17927;52.350;13.402;2022-09-14T04:00:42;4.82;;;2.97;;
31298;SDS011;17927;52.350;13.402;2022-09-14T04:03:07;2.97;;;2.53;;
31298;SDS011;17927;52.350;13.402;2022-09-14T04:05:32;4.03;;;2.83;;
31298;SDS011;17927;52.350;13.402;2022-09-14T04:07:58;4.22;;;2.90;;
31298;SDS011;17927;52.350;13.402;2022-09-14T04:10:23;7.43;;;2.65;;
31298;SDS011;17927;52.350;13.402;2022-09-14T04:12:49;3.17;;;2.88;;
31298;SDS011;17927;52.350;13.402;2022-09-14T04:15:14;4.40;;;2.53;;
31298;SDS011;17927;52.350;13.402;2022-09-14T04:17:39;2.45;;;2.25;;
31298;SDS011;17927;52.350;13.402;2022-09-14T04:20:05;3.80;;;2.70;;
31298;SDS011;17927;52.350;13.402;2022-09-14T04:22:30;5.07;;;2.65;;
31298;SDS011;17927;52.350;13.402;2022-09-14T04:24:57;3.88;;;2.72;;
31298;SDS011;17927;52.350;13.402;2022-09-14T04:27:22;3.78;;;3.00;;
31298;SDS011;17927;52.350;13.402;2022-09-14T04:29:48;3.28;;;2.20;;
31298;SDS011;17927;52.350;13.402;2022-09-14T04:32:14;4.32;;;2.70;;
31298;SDS011;17927;52.350;13.402;2022-09-14T04:34:40;2.95;;;2.75;;
31298;SDS011;17927;52.350;13.402;2022-09-14T04:37:05;2.75;;;2.55;;
31298;SDS011;17927;52.350;13.402;2022-09-14T04:39:30;3.63;;;2.67;;
31298;SDS011;17927;52.350;13.402;2022-09-14T04:41:55;3.35;;;2.92;;
31298;SDS011;17927;52.350;13.402;2022-09-14T04:44:21;2.72;;;2.53;;
31298;SDS011;17927;52.350;13.402;2022-09-14T04:46:46;3.25;;;2.97;;
31298;SDS011;17927;52.350;13.402;2022-09-14T04:49:11;2.95;;;2.70;;
31298;SDS011;17927;52.350;13.402;2022-09-14T04:51:36;4.07;;;2.80;;
31298;SDS011;17927;52.350;13.402;2022-09-14T04:54:03;6.50;;;3.10;;
31298;SDS011;17927;52.350;13.402;2022-09-14T04:56:32;6.00;;;2.63;;
31298;SDS011;17927;52.350;13.402;2022-09-14T04:59:00;2.97;;;2.65;;
31298;SDS011;17927;52.350;13.402;2022-09-14T05:01:31;2.72;;;2.53;;
31298;SDS011;17927;52.350;13.402;2022-09-14T05:06:25;2.78;;;2.47;;
31298;SDS011;17927;52.350;13.402;2022-09-14T05:08:55;5.45;;;2.33;;
31298;SDS011;17927;52.350;13.402;2022-09-14T05:11:22;4.50;;;2.75;;
31298;SDS011;17927;52.350;13.402;2022-09-14T05:13:48;4.65;;;2.65;;
31298;SDS011;17927;52.350;13.402;2022-09-14T05:18:40;4.33;;;2.40;;
31298;SDS011;17927;52.350;13.402;2022-09-14T05:21:06;2.97;;;2.15;;
31298;SDS011;17927;52.350;13.402;2022-09-14T05:23:34;4.43;;;2.75;;
31298;SDS011;17927;52.350;13.402;2022-09-14T05:26:00;5.05;;;2.97;;
31298;SDS011;17927;52.350;13.402;2022-09-14T05:28:26;5.75;;;2.88;;
31298;SDS011;17927;52.350;13.402;2022-09-14T05:30:51;3.40;;;2.85;;
31298;SDS011;17927;52.350;13.402;2022-09-14T05:33:17;8.70;;;2.65;;
31298;SDS011;17927;52.350;13.402;2022-09-14T05:35:44;6.80;;;2.20;;
31298;SDS011;17927;52.350;13.402;2022-09-14T05:38:09;5.70;;;2.35;;
31298;SDS011;17927;52.350;13.402;2022-09-14T05:40:35;5.93;;;2.53;;
31298;SDS011;17927;52.350;13.402;2022-09-14T05:43:00;5.00;;;2.30;;
31298;SDS011;17927;52.350;13.402;2022-09-14T05:45:25;9.18;;;2.50;;
31298;SDS011;17927;52.350;13.402;2022-09-14T05:47:50;5.25;;;2.58;;
31298;SDS011;17927;52.350;13.402;2022-09-14T05:50:16;4.40;;;2.33;;
31298;SDS011;17927;52.350;13.402;2022-09-14T05:52:41;4.10;;;2.78;;
31298;SDS011;17927;52.350;13.402;2022-09-14T05:55:06;3.97;;;2.45;;
31298;SDS011;17927;52.350;13.402;2022-09-14T05:57:32;2.40;;;2.20;;
31298;SDS011;17927;52.350;13.402;2022-09-14T05:59:57;3.67;;;2.05;;
31298;SDS011;17927;52.350;13.402;2022-09-14T06:02:23;3.53;;;2.03;;
31298;SDS011;17927;52.350;13.402;2022-09-14T06:04:48;5.75;;;2.05;;
31298;SDS011;17927;52.350;13.402;2022-09-14T06:07:13;6.22;;;2.60;;
31298;SDS011;17927;52.350;13.402;2022-09-14T06:09:38;4.65;;;1.92;;
31298;SDS011;17927;52.350;13.402;2022-09-14T06:12:04;3.72;;;2.17;;
31298;SDS011;17927;52.350;13.402;2022-09-14T06:14:29;7.30;;;2.30;;
31298;SDS011;17927;52.350;13.402;2022-09-14T06:16:54;3.20;;;1.95;;
31298;SDS011;17927;52.350;13.402;2022-09-14T06:19:19;6.00;;;2.17;;
31298;SDS011;17927;52.350;13.402;2022-09-14T06:21:45;6.10;;;2.10;;
31298;SDS011;17927;52.350;13.402;2022-09-14T06:24:10;5.55;;;2.47;;
31298;SDS011;17927;52.350;13.402;2022-09-14T06:26:39;4.82;;;1.98;;
31298;SDS011;17927;52.350;13.402;2022-09-14T06:29:04;6.82;;;2.10;;
31298;SDS011;17927;52.350;13.402;2022-09-14T06:31:30;3.70;;;1.95;;
31298;SDS011;17927;52.350;13.402;2022-09-14T06:33:55;7.15;;;2.38;;
31298;SDS011;17927;52.350;13.402;2022-09-14T06:36:21;6.30;;;2.20;;
31298;SDS011;17927;52.350;13.402;2022-09-14T06:38:48;3.58;;;1.95;;
31298;SDS011;17927;52.350;13.402;2022-09-14T06:41:17;4.97;;;2.03;;
31298;SDS011;17927;52.350;13.402;2022-09-14T06:43:44;6.50;;;2.60;;
31298;SDS011;17927;52.350;13.402;2022-09-14T06:48:41;8.15;;;2.20;;
31298;SDS011;17927;52.350;13.402;2022-09-14T06:51:16;7.25;;;2.40;;
31298;SDS011;17927;52.350;13.402;2022-09-14T06:53:44;5.03;;;2.45;;
31298;SDS011;17927;52.350;13.402;2022-09-14T06:56:10;4.15;;;2.10;;
31298;SDS011;17927;52.350;13.402;2022-09-14T06:58:36;4.45;;;2.22;;
31298;SDS011;17927;52.350;13.402;2022-09-14T07:01:06;8.40;;;2.20;;
31298;SDS011;17927;52.350;13.402;2022-09-14T07:03:34;6.72;;;2.30;;
31298;SDS011;17927;52.350;13.402;2022-09-14T07:06:02;4.65;;;2.20;;
31298;SDS011;17927;52.350;13.402;2022-09-14T07:08:32;4.40;;;2.38;;
31298;SDS011;17927;52.350;13.402;2022-09-14T07:10:58;5.38;;;1.92;;
31298;SDS011;17927;52.350;13.402;2022-09-14T07:13:24;5.82;;;1.80;;
31298;SDS011;17927;52.350;13.402;2022-09-14T07:15:50;4.45;;;1.88;;
31298;SDS011;17927;52.350;13.402;2022-09-14T07:18:15;6.93;;;2.17;;
31298;SDS011;17927;52.350;13.402;2022-09-14T07:20:41;6.50;;;2.17;;
31298;SDS011;17927;52.350;13.402;2022-09-14T07:23:06;6.07;;;1.92;;
31298;SDS011;17927;52.350;13.402;2022-09-14T07:25:32;5.18;;;2.50;;
31298;SDS011;17927;52.350;13.402;2022-09-14T07:27:57;7.28;;;2.10;;
31298;SDS011;17927;52.350;13.402;2022-09-14T07:30:24;8.10;;;3.25;;
31298;SDS011;17927;52.350;13.402;2022-09-14T07:32:51;18.40;;;8.27;;
31298;SDS011;17927;52.350;13.402;2022-09-14T07:35:17;9.27;;;5.03;;
31298;SDS011;17927;52.350;13.402;2022-09-14T07:37:42;3.05;;;2.30;;
31298;SDS011;17927;52.350;13.402;2022-09-14T07:40:07;7.82;;;4.78;;
31298;SDS011;17927;52.350;13.402;2022-09-14T07:42:35;4.07;;;2.15;;
31298;SDS011;17927;52.350;13.402;2022-09-14T07:45:01;7.45;;;2.25;;
31298;SDS011;17927;52.350;13.402;2022-09-14T07:47:27;6.88;;;1.90;;
31298;SDS011;17927;52.350;13.402;2022-09-14T07:49:52;7.72;;;2.55;;
31298;SDS011;17927;52.350;13.402;2022-09-14T07:52:17;8.65;;;2.13;;
31298;SDS011;17927;52.350;13.402;2022-09-14T07:54:42;6.20;;;1.90;;
31298;SDS011;17927;52.350;13.402;2022-09-14T07:57:08;8.05;;;1.98;;
31298;SDS011;17927;52.350;13.402;2022-09-14T07:59:33;9.70;;;2.10;;
31298;SDS011;17927;52.350;13.402;2022-09-14T08:01:58;6.00;;;1.90;;
31298;SDS011;17927;52.350;13.402;2022-09-14T08:04:23;8.75;;;2.40;;
31298;SDS011;17927;52.350;13.402;2022-09-14T08:06:49;8.00;;;2.10;;
31298;SDS011;17927;52.350;13.402;2022-09-14T08:09:15;8.25;;;1.90;;
31298;SDS011;17927;52.350;13.402;2022-09-14T08:11:40;7.88;;;2.67;;
31298;SDS011;17927;52.350;13.402;2022-09-14T08:14:06;5.85;;;1.65;;
31298;SDS011;17927;52.350;13.402;2022-09-14T08:16:34;5.63;;;1.85;;
31298;SDS011;17927;52.350;13.402;2022-09-14T08:19:00;5.88;;;2.10;;
31298;SDS011;17927;52.350;13.402;2022-09-14T08:21:27;8.45;;;2.33;;
31298;SDS011;17927;52.350;13.402;2022-09-14T08:23:53;10.95;;;2.03;;
31298;SDS011;17927;52.350;13.402;2022-09-14T08:26:21;8.00;;;2.40;;
31298;SDS011;17927;52.350;13.402;2022-09-14T08:28:47;10.60;;;2.70;;
31298;SDS011;17927;52.350;13.402;2022-09-14T08:31:15;6.22;;;1.58;;
31298;SDS011;17927;52.350;13.402;2022-09-14T08:33:43;4.72;;;1.73;;
31298;SDS011;17927;52.350;13.402;2022-09-14T08:36:11;7.05;;;1.92;;
31298;SDS011;17927;52.350;13.402;2022-09-14T08:38:40;9.18;;;1.55;;
31298;SDS011;17927;52.350;13.402;2022-09-14T08:43:45;7.22;;;1.73;;
31298;SDS011;17927;52.350;13.402;2022-09-14T08:46:14;7.97;;;2.08;;
31298;SDS011;17927;52.350;13.402;2022-09-14T08:48:57;6.43;;;1.80;;
31298;SDS011;17927;52.350;13.402;2022-09-14T08:51:24;6.50;;;1.70;;
31298;SDS011;17927;52.350;13.402;2022-09-14T08:53:50;6.03;;;2.13;;
31298;SDS011;17927;52.350;13.402;2022-09-14T08:56:18;11.77;;;1.92;;
31298;SDS011;17927;52.350;13.402;2022-09-14T09:05:02;6.78;;;1.58;;
31298;SDS011;17927;52.350;13.402;2022-09-14T09:07:50;3.80;;;1.50;;
31298;SDS011;17927;52.350;13.402;2022-09-14T09:10:27;5.45;;;1.58;;
31298;SDS011;17927;52.350;13.402;2022-09-14T09:12:55;6.55;;;1.65;;
31298;SDS011;17927;52.350;13.402;2022-09-14T09:15:24;4.78;;;1.70;;
31298;SDS011;17927;52.350;13.402;2022-09-14T09:18:01;4.13;;;1.40;;
31298;SDS011;17927;52.350;13.402;2022-09-14T09:20:32;10.18;;;2.28;;
31298;SDS011;17927;52.350;13.402;2022-09-14T09:23:11;4.55;;;1.50;;
31298;SDS011;17927;52.350;13.402;2022-09-14T09:25:53;7.30;;;2.20;;
31298;SDS011;17927;52.350;13.402;2022-09-14T09:28:23;8.98;;;1.48;;
31298;SDS011;17927;52.350;13.402;2022-09-14T09:30:50;3.40;;;2.40;;
31298;SDS011;17927;52.350;13.402;2022-09-14T09:33:23;5.80;;;1.85;;
31298;SDS011;17927;52.350;13.402;2022-09-14T09:35:51;4.78;;;1.80;;
31298;SDS011;17927;52.350;13.402;2022-09-14T09:38:18;5.95;;;1.58;;
31298;SDS011;17927;52.350;13.402;2022-09-14T09:40:53;4.35;;;1.73;;
31298;SDS011;17927;52.350;13.402;2022-09-14T09:46:29;7.35;;;1.80;;
31298;SDS011;17927;52.350;13.402;2022-09-14T09:48:57;7.30;;;1.80;;
31298;SDS011;17927;52.350;13.402;2022-09-14T09:53:56;8.82;;;2.20;;
31298;SDS011;17927;52.350;13.402;2022-09-14T09:56:28;3.90;;;1.40;;
31298;SDS011;17927;52.350;13.402;2022-09-14T09:58:56;8.38;;;1.73;;
31298;SDS011;17927;52.350;13.402;2022-09-14T10:01:25;9.57;;;1.80;;
31298;SDS011;17927;52.350;13.402;2022-09-14T10:06:25;7.55;;;2.28;;
31298;SDS011;17927;52.350;13.402;2022-09-14T10:08:50;6.22;;;1.85;;
31298;SDS011;17927;52.350;13.402;2022-09-14T10:11:34;9.90;;;2.45;;
31298;SDS011;17927;52.350;13.402;2022-09-14T10:14:02;12.95;;;3.80;;
31298;SDS011;17927;52.350;13.402;2022-09-14T10:16:33;6.20;;;1.98;;
31298;SDS011;17927;52.350;13.402;2022-09-14T10:19:01;4.32;;;2.00;;
31298;SDS011;17927;52.350;13.402;2022-09-14T10:21:27;5.55;;;1.55;;
31298;SDS011;17927;52.350;13.402;2022-09-14T10:24:28;5.90;;;1.50;;
31298;SDS011;17927;52.350;13.402;2022-09-14T10:26:46;7.10;;;1.88;;
31298;SDS011;17927;52.350;13.402;2022-09-14T10:29:29;5.22;;;1.52;;
31298;SDS011;17927;52.350;13.402;2022-09-14T10:32:01;6.13;;;1.67;;
31298;SDS011;17927;52.350;13.402;2022-09-14T10:34:41;4.93;;;1.80;;
31298;SDS011;17927;52.350;13.402;2022-09-14T10:37:11;5.70;;;1.65;;
31298;SDS011;17927;52.350;13.402;2022-09-14T10:39:45;4.10;;;1.60;;
31298;SDS011;17927;52.350;13.402;2022-09-14T10:42:31;6.30;;;1.50;;
31298;SDS011;17927;52.350;13.402;2022-09-14T10:45:09;5.45;;;1.67;;
31298;SDS011;17927;52.350;13.402;2022-09-14T10:47:48;6.43;;;1.50;;
31298;SDS011;17927;52.350;13.402;2022-09-14T10:50:26;5.57;;;1.25;;
31298;SDS011;17927;52.350;13.402;2022-09-14T10:52:55;6.22;;;1.60;;
31298;SDS011;17927;52.350;13.402;2022-09-14T11:00:51;3.97;;;1.35;;
31298;SDS011;17927;52.350;13.402;2022-09-14T11:03:47;6.40;;;1.85;;
31298;SDS011;17927;52.350;13.402;2022-09-14T11:06:35;4.55;;;1.95;;
31298;SDS011;17927;52.350;13.402;2022-09-14T11:09:25;9.75;;;3.25;;
31298;SDS011;17927;52.350;13.402;2022-09-14T11:12:03;3.55;;;1.33;;
31298;SDS011;17927;52.350;13.402;2022-09-14T11:14:52;4.93;;;1.63;;
31298;SDS011;17927;52.350;13.402;2022-09-14T11:20:19;1.42;;;0.98;;
31298;SDS011;17927;52.350;13.402;2022-09-14T11:25:49;6.20;;;1.52;;
31298;SDS011;17927;52.350;13.402;2022-09-14T11:28:21;5.13;;;1.63;;
31298;SDS011;17927;52.350;13.402;2022-09-14T11:30:53;6.45;;;1.50;;
31298;SDS011;17927;52.350;13.402;2022-09-14T11:33:30;4.50;;;1.92;;
31298;SDS011;17927;52.350;13.402;2022-09-14T11:36:20;4.47;;;1.45;;
31298;SDS011;17927;52.350;13.402;2022-09-14T11:39:33;5.50;;;2.08;;
31298;SDS011;17927;52.350;13.402;2022-09-14T11:41:48;3.75;;;1.30;;
31298;SDS011;17927;52.350;13.402;2022-09-14T11:44:20;5.15;;;1.30;;
31298;SDS011;17927;52.350;13.402;2022-09-14T11:46:56;6.07;;;2.33;;
31298;SDS011;17927;52.350;13.402;2022-09-14T11:49:33;7.72;;;1.52;;
31298;SDS011;17927;52.350;13.402;2022-09-14T11:52:12;3.70;;;1.63;;
31298;SDS011;17927;52.350;13.402;2022-09-14T11:54:41;4.07;;;1.63;;
31298;SDS011;17927;52.350;13.402;2022-09-14T11:57:11;3.60;;;1.58;;
31298;SDS011;17927;52.350;13.402;2022-09-14T12:12:37;4.63;;;1.98;;
31298;SDS011;17927;52.350;13.402;2022-09-14T12:15:11;5.50;;;1.40;;
31298;SDS011;17927;52.350;13.402;2022-09-14T12:17:40;4.10;;;1.05;;
31298;SDS011;17927;52.350;13.402;2022-09-14T12:25:37;4.10;;;1.10;;
31298;SDS011;17927;52.350;13.402;2022-09-14T12:28:24;3.92;;;1.02;;
31298;SDS011;17927;52.350;13.402;2022-09-14T12:35:55;3.63;;;1.50;;
31298;SDS011;17927;52.350;13.402;2022-09-14T12:40:59;2.50;;;1.20;;
31298;SDS011;17927;52.350;13.402;2022-09-14T12:51:08;5.60;;;1.97;;
31298;SDS011;17927;52.350;13.402;2022-09-14T12:59:11;3.45;;;1.42;;
31298;SDS011;17927;52.350;13.402;2022-09-14T13:04:37;7.80;;;1.63;;
31298;SDS011;17927;52.350;13.402;2022-09-14T13:07:04;1.90;;;1.27;;
31298;SDS011;17927;52.350;13.402;2022-09-14T13:09:36;6.82;;;1.40;;
31298;SDS011;17927;52.350;13.402;2022-09-14T13:12:03;2.75;;;1.10;;
31298;SDS011;17927;52.350;13.402;2022-09-14T13:14:34;8.88;;;1.40;;
31298;SDS011;17927;52.350;13.402;2022-09-14T13:17:11;2.65;;;1.13;;
31298;SDS011;17927;52.350;13.402;2022-09-14T13:19:38;5.85;;;1.70;;
31298;SDS011;17927;52.350;13.402;2022-09-14T13:22:15;2.30;;;1.40;;
31298;SDS011;17927;52.350;13.402;2022-09-14T13:24:43;3.55;;;1.27;;
31298;SDS011;17927;52.350;13.402;2022-09-14T13:27:20;4.72;;;1.02;;
31298;SDS011;17927;52.350;13.402;2022-09-14T13:30:02;2.75;;;1.23;;
31298;SDS011;17927;52.350;13.402;2022-09-14T13:32:34;3.60;;;1.27;;
31298;SDS011;17927;52.350;13.402;2022-09-14T13:35:05;3.53;;;1.40;;
31298;SDS011;17927;52.350;13.402;2022-09-14T13:37:31;3.78;;;1.23;;
31298;SDS011;17927;52.350;13.402;2022-09-14T13:39:57;5.78;;;1.27;;
31298;SDS011;17927;52.350;13.402;2022-09-14T13:42:23;2.47;;;1.27;;
31298;SDS011;17927;52.350;13.402;2022-09-14T13:44:49;3.03;;;1.30;;
31298;SDS011;17927;52.350;13.402;2022-09-14T13:47:17;4.07;;;1.10;;
31298;SDS011;17927;52.350;13.402;2022-09-14T13:49:45;5.32;;;1.30;;
31298;SDS011;17927;52.350;13.402;2022-09-14T13:54:45;5.93;;;1.60;;
31298;SDS011;17927;52.350;13.402;2022-09-14T13:57:16;6.15;;;1.55;;
31298;SDS011;17927;52.350;13.402;2022-09-14T14:02:44;3.38;;;1.40;;
31298;SDS011;17927;52.350;13.402;2022-09-14T14:05:22;5.55;;;1.50;;
31298;SDS011;17927;52.350;13.402;2022-09-14T14:07:56;4.18;;;1.20;;
31298;SDS011;17927;52.350;13.402;2022-09-14T14:10:32;5.65;;;1.40;;
31298;SDS011;17927;52.350;13.402;2022-09-14T14:13:01;2.47;;;1.15;;
31298;SDS011;17927;52.350;13.402;2022-09-14T14:17:57;5.63;;;1.45;;
31298;SDS011;17927;52.350;13.402;2022-09-14T14:25:41;4.85;;;1.70;;
31298;SDS011;17927;52.350;13.402;2022-09-14T14:28:16;3.15;;;1.35;;
31298;SDS011;17927;52.350;13.402;2022-09-14T14:30:46;4.55;;;1.60;;
31298;SDS011;17927;52.350;13.402;2022-09-14T14:33:12;6.75;;;1.40;;
31298;SDS011;17927;52.350;13.402;2022-09-14T14:35:39;9.23;;;1.65;;
31298;SDS011;17927;52.350;13.402;2022-09-14T14:38:05;9.07;;;1.70;;
31298;SDS011;17927;52.350;13.402;2022-09-14T14:40:31;6.93;;;1.63;;
31298;SDS011;17927;52.350;13.402;2022-09-14T14:42:57;4.00;;;1.50;;
31298;SDS011;17927;52.350;13.402;2022-09-14T14:45:25;4.30;;;1.48;;
31298;SDS011;17927;52.350;13.402;2022-09-14T14:47:51;6.68;;;1.73;;
31298;SDS011;17927;52.350;13.402;2022-09-14T14:50:20;3.50;;;1.40;;
31298;SDS011;17927;52.350;13.402;2022-09-14T14:52:47;5.13;;;1.30;;
31298;SDS011;17927;52.350;13.402;2022-09-14T14:55:12;1.52;;;1.20;;
31298;SDS011;17927;52.350;13.402;2022-09-14T14:57:38;6.38;;;1.50;;
31298;SDS011;17927;52.350;13.402;2022-09-14T15:00:15;4.82;;;1.20;;
31298;SDS011;17927;52.350;13.402;2022-09-14T15:02:42;7.35;;;1.50;;
31298;SDS011;17927;52.350;13.402;2022-09-14T15:05:08;4.93;;;1.10;;
31298;SDS011;17927;52.350;13.402;2022-09-14T15:07:33;3.88;;;1.48;;
31298;SDS011;17927;52.350;13.402;2022-09-14T15:09:59;4.40;;;1.10;;
31298;SDS011;17927;52.350;13.402;2022-09-14T15:12:24;2.17;;;1.10;;
31298;SDS011;17927;52.350;13.402;2022-09-14T15:14:49;3.97;;;1.73;;
31298;SDS011;17927;52.350;13.402;2022-09-14T15:17:14;2.15;;;1.08;;
31298;SDS011;17927;52.350;13.402;2022-09-14T15:19:40;2.55;;;1.10;;
31298;SDS011;17927;52.350;13.402;2022-09-14T15:22:05;4.88;;;1.52;;
31298;SDS011;17927;52.350;13.402;2022-09-14T15:24:31;7.97;;;1.40;;
31298;SDS011;17927;52.350;13.402;2022-09-14T15:26:56;4.15;;;1.50;;
31298;SDS011;17927;52.350;13.402;2022-09-14T15:29:22;7.28;;;1.50;;
31298;SDS011;17927;52.350;13.402;2022-09-14T15:31:48;2.90;;;1.30;;
31298;SDS011;17927;52.350;13.402;2022-09-14T15:34:13;6.43;;;1.33;;
31298;SDS011;17927;52.350;13.402;2022-09-14T15:36:42;3.58;;;1.40;;
31298;SDS011;17927;52.350;13.402;2022-09-14T15:39:12;6.57;;;1.42;;
31298;SDS011;17927;52.350;13.402;2022-09-14T15:41:38;2.22;;;1.13;;
31298;SDS011;17927;52.350;13.402;2022-09-14T15:44:03;8.13;;;1.20;;
31298;SDS011;17927;52.350;13.402;2022-09-14T15:46:29;7.82;;;1.35;;
31298;SDS011;17927;52.350;13.402;2022-09-14T15:48:55;2.38;;;1.35;;
31298;SDS011;17927;52.350;13.402;2022-09-14T15:51:21;4.93;;;1.55;;
31298;SDS011;17927;52.350;13.402;2022-09-14T15:53:46;4.40;;;1.40;;
31298;SDS011;17927;52.350;13.402;2022-09-14T15:56:12;2.85;;;1.50;;
31298;SDS011;17927;52.350;13.402;2022-09-14T15:58:38;3.22;;;1.33;;
31298;SDS011;17927;52.350;13.402;2022-09-14T16:01:11;9.60;;;1.50;;
31298;SDS011;17927;52.350;13.402;2022-09-14T16:03:37;14.85;;;1.73;;
31298;SDS011;17927;52.350;13.402;2022-09-14T16:06:04;7.50;;;1.60;;
31298;SDS011;17927;52.350;13.402;2022-09-14T16:08:30;8.23;;;1.90;;
31298;SDS011;17927;52.350;13.402;2022-09-14T16:11:00;2.25;;;1.40;;
31298;SDS011;17927;52.350;13.402;2022-09-14T16:13:26;3.92;;;1.73;;
31298;SDS011;17927;52.350;13.402;2022-09-14T16:16:06;5.50;;;1.30;;
31298;SDS011;17927;52.350;13.402;2022-09-14T16:18:33;4.45;;;1.40;;
31298;SDS011;17927;52.350;13.402;2022-09-14T16:21:05;6.40;;;1.67;;
31298;SDS011;17927;52.350;13.402;2022-09-14T16:23:39;6.40;;;2.10;;
31298;SDS011;17927;52.350;13.402;2022-09-14T16:26:10;2.67;;;2.13;;
31298;SDS011;17927;52.350;13.402;2022-09-14T16:28:38;5.00;;;1.58;;
31298;SDS011;17927;52.350;13.402;2022-09-14T16:31:09;17.63;;;11.70;;
31298;SDS011;17927;52.350;13.402;2022-09-14T16:33:38;9.77;;;4.40;;
31298;SDS011;17927;52.350;13.402;2022-09-14T16:36:10;7.88;;;2.35;;